Blaenavon, United Kingdom
Current Conditions -  °F | °C
As of 2:50 PM on Tuesday 21 Oct 2014 (Local Time) from EGFF Reporting Station
Broken Clouds Broken Clouds  
Wind Chill: 55°   Ceiling: 3900
Heat Index: 55°   Visibility: 6mi
Dew Point: 41°   Wind: 32mph
Humidity: 58%   Direction: 300°WNW
Pressure: 29.91"   Gusts: NA
Location:  51.77°N, 3.09°W
Report Text: EGFF 211350Z AUTO 30028KT 9999 BKN039/// //////TCU 13/05 Q1013
Loading
Personal Weather Stations






























Interactive Weather Map
Tropical Storm Tracking
New forecast layout! Learn more

10-Day Weather Forecast

Advertisements
Track Severe Weather on mobile